Time;durP1;ratioP1;P1;durP2;ratioP2;P2;SDS_P1;SDS_P2;PMS_P1;PMS_P2;Temp;Humidity;BMP_temperature;BMP_pressure;BME280_temperature;BME280_humidity;BME280_pressure;Samples;Min_cycle;Max_cycle;Signal;HPM_P1;HPM_P2
2022/08/10 00:01:28;;;;;;;;;;;12.10;99.90;;;;;;5093397;28;20371;-70
2022/08/10 00:03:55;;;;;;;;;;;12.10;99.90;;;;;;5093535;28;19915;-69
2022/08/10 00:06:22;;;;;;;;;;;12.10;99.90;;;;;;5093216;28;19999;-70
2022/08/10 00:08:49;;;;;;;;;;;12.20;99.90;;;;;;5093337;28;19919;-69
2022/08/10 00:11:15;;;;;;;;;;;12.30;99.90;;;;;;5093286;28;19946;-69
2022/08/10 00:13:42;;;;;;;;;;;12.30;99.90;;;;;;5093283;28;19950;-69
2022/08/10 00:16:09;;;;;;;;;;;12.40;99.90;;;;;;5093160;28;19912;-70
2022/08/10 00:18:36;;;;;;;;;;;12.40;99.90;;;;;;5093355;28;19915;-69
2022/08/10 00:21:04;;;;;;;;;;;12.60;99.90;;;;;;5093334;28;19931;-70
2022/08/10 00:23:30;;;;;;;;;;;12.70;99.90;;;;;;5093201;28;19908;-70
2022/08/10 00:25:57;;;;;;;;;;;12.90;99.90;;;;;;5092211;28;20373;-67
2022/08/10 00:28:24;;;;;;;;;;;13.00;99.90;;;;;;5092842;28;19915;-69
2022/08/10 00:30:51;;;;;;;;;;;13.00;99.90;;;;;;5093177;28;19916;-69
2022/08/10 00:33:17;;;;;;;;;;;13.10;99.90;;;;;;5093169;28;19908;-69
2022/08/10 00:35:44;;;;;;;;;;;13.30;99.90;;;;;;5095228;28;20304;-69
2022/08/10 00:38:11;;;;;;;;;;;13.30;99.90;;;;;;5070704;28;19916;-69
2022/08/10 00:40:38;;;;;;;;;;;13.20;99.90;;;;;;5056135;28;19908;-69
2022/08/10 00:43:05;;;;;;;;;;;13.40;99.90;;;;;;5057888;28;19967;-69
2022/08/10 00:45:32;;;;;;;;;;;13.40;99.90;;;;;;5096914;28;19924;-69
2022/08/10 00:47:59;;;;;;;;;;;13.50;99.90;;;;;;5096934;28;19912;-69
2022/08/10 00:50:26;;;;;;;;;;;13.50;99.90;;;;;;5096715;28;19916;-69
2022/08/10 00:52:52;;;;;;;;;;;13.40;99.90;;;;;;5096717;28;19908;-69
2022/08/10 00:55:19;;;;;;;;;;;13.50;99.90;;;;;;5096679;28;20010;-69
2022/08/10 00:57:46;;;;;;;;;;;13.50;99.90;;;;;;5096580;28;19908;-69
2022/08/10 01:00:13;;;;;;;;;;;13.40;99.90;;;;;;5096660;28;19961;-69
2022/08/10 01:02:40;;;;;;;;;;;13.50;99.90;;;;;;5096551;28;19991;-69
2022/08/10 01:05:08;;;;;;;;;;;13.80;99.90;;;;;;5096551;28;20251;-69
2022/08/10 01:07:40;;;;;;;;;;;14.10;99.90;;;;;;5096436;28;19915;-70
2022/08/10 01:10:29;;;;;;;;;;;14.20;99.90;;;;;;5096439;28;19908;-69
2022/08/10 01:13:12;;;;;;;;;;;14.20;99.90;;;;;;5096525;28;19912;-69
2022/08/10 01:15:46;;;;;;;;;;;14.20;99.90;;;;;;5096368;28;19912;-69
2022/08/10 01:18:17;;;;;;;;;;;14.20;99.90;;;;;;5096202;28;19912;-69
2022/08/10 01:20:47;;;;;;;;;;;14.20;99.90;;;;;;5096221;28;19961;-69
2022/08/10 01:23:19;;;;;;;;;;;14.20;99.90;;;;;;5096216;28;19908;-69
2022/08/10 01:25:53;;;;;;;;;;;14.30;99.90;;;;;;5096233;28;19941;-70
2022/08/10 01:28:38;;;;;;;;;;;14.40;99.90;;;;;;5095761;28;19908;-69
2022/08/10 01:31:05;;;;;;;;;;;14.60;99.90;;;;;;5095807;28;19912;-69
2022/08/10 01:33:35;;;;;;;;;;;14.60;99.90;;;;;;5096039;28;19908;-69
2022/08/10 01:36:08;;;;;;;;;;;14.60;99.90;;;;;;5095699;28;20318;-69
2022/08/10 01:38:44;;;;;;;;;;;14.60;99.90;;;;;;5095935;28;19908;-69
2022/08/10 01:41:18;;;;;;;;;;;14.70;99.90;;;;;;5095853;28;19909;-69
2022/08/10 01:43:55;;;;;;;;;;;14.70;99.90;;;;;;5095555;28;19953;-69
2022/08/10 01:46:23;;;;;;;;;;;14.70;99.90;;;;;;5095169;28;19942;-69
2022/08/10 01:48:52;;;;;;;;;;;14.90;99.90;;;;;;5095769;28;20382;-69
2022/08/10 01:51:29;;;;;;;;;;;15.00;99.90;;;;;;5095687;28;19920;-69
2022/08/10 01:53:58;;;;;;;;;;;14.80;99.90;;;;;;5095653;28;19915;-69
2022/08/10 01:56:27;;;;;;;;;;;14.60;99.90;;;;;;5094072;28;20387;-70
2022/08/10 01:59:14;;;;;;;;;;;14.60;99.90;;;;;;5095847;28;19909;-69
2022/08/10 02:01:44;;;;;;;;;;;14.50;99.90;;;;;;5095184;28;20026;-70
2022/08/10 02:04:12;;;;;;;;;;;14.50;99.90;;;;;;5095450;28;19908;-70
2022/08/10 02:06:44;;;;;;;;;;;14.50;99.90;;;;;;5095735;28;19920;-70
2022/08/10 02:09:13;;;;;;;;;;;14.60;99.90;;;;;;5096046;28;19908;-69
2022/08/10 02:11:42;;;;;;;;;;;14.80;99.90;;;;;;5095477;28;19916;-69
2022/08/10 02:14:11;;;;;;;;;;;15.00;99.90;;;;;;5095253;28;19958;-69
2022/08/10 02:16:38;;;;;;;;;;;15.00;99.90;;;;;;5095379;28;19931;-69
2022/08/10 02:19:05;;;;;;;;;;;14.90;99.90;;;;;;5095590;28;20342;-69
2022/08/10 02:21:32;;;;;;;;;;;14.90;99.90;;;;;;5093765;28;20271;-69
2022/08/10 02:24:00;;;;;;;;;;;14.70;99.90;;;;;;5095156;28;20274;-69
2022/08/10 02:26:27;;;;;;;;;;;14.60;99.90;;;;;;5095072;28;19908;-70
2022/08/10 02:28:54;;;;;;;;;;;14.30;99.90;;;;;;5094818;28;20320;-70
2022/08/10 02:31:23;;;;;;;;;;;14.20;99.90;;;;;;5094713;28;20018;-69
2022/08/10 02:33:51;;;;;;;;;;;14.10;99.90;;;;;;5094789;28;19908;-69
2022/08/10 02:36:19;;;;;;;;;;;14.00;99.90;;;;;;5094742;28;19967;-69
2022/08/10 02:38:48;;;;;;;;;;;14.10;99.90;;;;;;5094762;28;19955;-69
2022/08/10 02:41:20;;;;;;;;;;;14.10;99.90;;;;;;5094399;28;19908;-69
2022/08/10 02:43:50;;;;;;;;;;;13.90;99.90;;;;;;5094443;28;20332;-70
2022/08/10 02:46:22;;;;;;;;;;;13.90;99.90;;;;;;5094465;28;19926;-70
2022/08/10 02:48:53;;;;;;;;;;;13.80;99.90;;;;;;5097280;28;20007;-70
2022/08/10 02:51:22;;;;;;;;;;;13.90;99.90;;;;;;5094708;28;19923;-70
2022/08/10 02:53:56;;;;;;;;;;;14.00;99.90;;;;;;5094637;28;19912;-69
2022/08/10 02:56:39;;;;;;;;;;;14.30;99.90;;;;;;5093968;28;20330;-70
2022/08/10 02:59:15;;;;;;;;;;;14.40;99.90;;;;;;5094114;28;20258;-69
2022/08/10 03:01:43;;;;;;;;;;;14.60;99.90;;;;;;5094844;28;19955;-69
2022/08/10 03:04:39;;;;;;;;;;;14.70;99.90;;;;;;5094603;28;19908;-69
2022/08/10 03:07:09;;;;;;;;;;;14.80;99.90;;;;;;5085089;28;19909;-70
2022/08/10 03:09:37;;;;;;;;;;;15.00;99.90;;;;;;5097498;28;19953;-70
2022/08/10 03:12:05;;;;;;;;;;;14.90;99.90;;;;;;5094001;28;19923;-70
2022/08/10 03:14:33;;;;;;;;;;;14.60;99.90;;;;;;5094705;28;19912;-70
2022/08/10 03:17:01;;;;;;;;;;;14.60;99.90;;;;;;5094631;28;19908;-69
2022/08/10 03:19:29;;;;;;;;;;;14.40;99.90;;;;;;5094286;28;20023;-70
2022/08/10 03:21:56;;;;;;;;;;;14.30;99.90;;;;;;5094479;28;19908;-70
2022/08/10 03:24:25;;;;;;;;;;;14.20;99.90;;;;;;5094160;28;20326;-70
2022/08/10 03:26:53;;;;;;;;;;;14.10;99.90;;;;;;5093945;28;19908;-69
2022/08/10 03:29:20;;;;;;;;;;;13.80;99.90;;;;;;5094054;28;20392;-70
2022/08/10 03:31:48;;;;;;;;;;;13.80;99.90;;;;;;5093992;28;20294;-69
2022/08/10 03:34:16;;;;;;;;;;;13.70;99.90;;;;;;5093819;28;19908;-69
2022/08/10 03:36:43;;;;;;;;;;;13.70;99.90;;;;;;5093811;28;20362;-70
2022/08/10 03:39:09;;;;;;;;;;;13.80;99.90;;;;;;5093863;28;19947;-70
2022/08/10 03:41:42;;;;;;;;;;;13.90;99.90;;;;;;5093663;28;19970;-70
2022/08/10 03:44:11;;;;;;;;;;;14.00;99.90;;;;;;5093353;28;19913;-70
2022/08/10 03:46:40;;;;;;;;;;;14.00;99.90;;;;;;5093800;28;20314;-70
2022/08/10 03:49:07;;;;;;;;;;;14.10;99.90;;;;;;5092474;28;20286;-70
2022/08/10 03:51:34;;;;;;;;;;;14.10;99.90;;;;;;5093477;28;19923;-70
2022/08/10 03:54:02;;;;;;;;;;;14.20;99.90;;;;;;5093980;28;19912;-70
2022/08/10 03:56:29;;;;;;;;;;;14.40;99.90;;;;;;5093346;28;19994;-70
2022/08/10 03:58:56;;;;;;;;;;;14.40;99.90;;;;;;5092359;28;19909;-70
2022/08/10 04:01:23;;;;;;;;;;;14.40;99.90;;;;;;5093587;28;20255;-70
2022/08/10 04:03:50;;;;;;;;;;;14.60;99.90;;;;;;5093612;28;19912;-70
2022/08/10 04:06:17;;;;;;;;;;;14.60;99.90;;;;;;5093192;28;19908;-70
2022/08/10 04:08:44;;;;;;;;;;;14.60;99.90;;;;;;5093957;28;19980;-69
2022/08/10 04:11:10;;;;;;;;;;;14.60;99.90;;;;;;5097508;28;20282;-70
2022/08/10 04:13:37;;;;;;;;;;;14.50;99.90;;;;;;5097730;28;20370;-69
2022/08/10 04:16:05;;;;;;;;;;;14.40;99.90;;;;;;5097482;28;19960;-70
2022/08/10 04:18:32;;;;;;;;;;;14.30;99.90;;;;;;5097648;28;19915;-69
2022/08/10 04:21:10;;;;;;;;;;;14.20;99.90;;;;;;5097368;28;19912;-70
2022/08/10 04:23:40;;;;;;;;;;;14.30;99.90;;;;;;5097650;28;19915;-69
2022/08/10 04:26:07;;;;;;;;;;;14.40;99.90;;;;;;5097368;28;19999;-69
2022/08/10 04:28:34;;;;;;;;;;;14.40;99.90;;;;;;5097332;28;19908;-69
2022/08/10 04:31:02;;;;;;;;;;;14.40;99.90;;;;;;5097109;28;19971;-69
2022/08/10 04:33:31;;;;;;;;;;;14.40;99.90;;;;;;5097133;28;19912;-69
2022/08/10 04:35:57;;;;;;;;;;;14.50;99.90;;;;;;5097173;28;20278;-69
2022/08/10 04:38:25;;;;;;;;;;;14.50;99.90;;;;;;5096788;28;19939;-69
2022/08/10 04:40:52;;;;;;;;;;;14.40;99.90;;;;;;5096924;28;19915;-69
2022/08/10 04:43:19;;;;;;;;;;;14.40;99.90;;;;;;5096901;28;19912;-69
2022/08/10 04:45:46;;;;;;;;;;;14.40;99.90;;;;;;5096872;28;19926;-69
2022/08/10 04:48:13;;;;;;;;;;;14.50;99.90;;;;;;5095545;28;19911;-69
2022/08/10 04:50:40;;;;;;;;;;;14.60;99.90;;;;;;5096141;28;19912;-69
2022/08/10 04:53:07;;;;;;;;;;;14.50;99.90;;;;;;5095954;28;20345;-69
2022/08/10 04:55:33;;;;;;;;;;;14.40;99.90;;;;;;5096491;28;19908;-69
2022/08/10 04:58:00;;;;;;;;;;;14.40;99.90;;;;;;5096815;28;19909;-69
2022/08/10 05:00:27;;;;;;;;;;;14.30;99.90;;;;;;5096625;28;20255;-69
2022/08/10 05:02:53;;;;;;;;;;;14.40;99.90;;;;;;5096471;28;19909;-69
2022/08/10 05:05:20;;;;;;;;;;;14.40;99.90;;;;;;5096382;28;19911;-69
2022/08/10 05:07:47;;;;;;;;;;;14.40;99.90;;;;;;5096380;28;19908;-69
2022/08/10 05:10:14;;;;;;;;;;;14.30;99.90;;;;;;5096031;28;19908;-69
2022/08/10 05:12:40;;;;;;;;;;;14.30;99.90;;;;;;5096172;28;19980;-69
2022/08/10 05:15:08;;;;;;;;;;;14.20;99.90;;;;;;5095205;28;19915;-69
2022/08/10 05:17:35;;;;;;;;;;;14.10;99.90;;;;;;5096146;28;19908;-69
2022/08/10 05:20:06;;;;;;;;;;;14.10;99.90;;;;;;5095762;28;20007;-69
2022/08/10 05:22:37;;;;;;;;;;;14.10;99.90;;;;;;5095692;28;19912;-69
2022/08/10 05:25:05;;;;;;;;;;;14.20;99.90;;;;;;5096157;28;20393;-69
2022/08/10 05:27:32;;;;;;;;;;;14.20;99.90;;;;;;5095904;28;20368;-69
2022/08/10 05:29:59;;;;;;;;;;;14.30;99.90;;;;;;5095870;28;19944;-69
2022/08/10 05:32:26;;;;;;;;;;;14.30;99.90;;;;;;5095943;28;19916;-69
2022/08/10 05:34:52;;;;;;;;;;;14.30;99.90;;;;;;5095850;28;19908;-69
2022/08/10 05:37:19;;;;;;;;;;;14.40;99.90;;;;;;5095718;28;19991;-69
2022/08/10 05:39:47;;;;;;;;;;;14.50;99.90;;;;;;5095969;28;19912;-69
2022/08/10 05:42:16;;;;;;;;;;;14.60;99.90;;;;;;5095582;28;19943;-69
2022/08/10 05:44:45;;;;;;;;;;;14.60;99.90;;;;;;5095590;28;19920;-70
2022/08/10 05:47:12;;;;;;;;;;;14.50;99.90;;;;;;5095707;28;19908;-69
2022/08/10 05:49:39;;;;;;;;;;;14.40;99.90;;;;;;5095503;28;19915;-69
2022/08/10 05:52:06;;;;;;;;;;;14.30;99.90;;;;;;5095357;28;20314;-69
2022/08/10 05:54:33;;;;;;;;;;;14.30;99.90;;;;;;5095407;28;19908;-69
2022/08/10 05:57:00;;;;;;;;;;;14.20;99.90;;;;;;5095422;28;19908;-69
2022/08/10 05:59:30;;;;;;;;;;;14.10;99.90;;;;;;5095516;28;19919;-69
2022/08/10 06:01:58;;;;;;;;;;;14.10;99.90;;;;;;5095530;28;20338;-70
2022/08/10 06:04:28;;;;;;;;;;;14.00;99.90;;;;;;5095410;28;20373;-69
2022/08/10 06:06:55;;;;;;;;;;;14.00;99.90;;;;;;5095436;28;19923;-69
2022/08/10 06:09:23;;;;;;;;;;;14.00;99.90;;;;;;5095190;28;19908;-69
2022/08/10 06:11:51;;;;;;;;;;;13.90;99.90;;;;;;5094950;28;20475;-69
2022/08/10 06:17:04;;;;;;;;;;;13.90;99.90;;;;;;5095434;28;19953;-69
2022/08/10 06:19:31;;;;;;;;;;;13.80;99.90;;;;;;5095001;28;19908;-69
2022/08/10 06:22:00;;;;;;;;;;;13.80;99.90;;;;;;5095025;28;20282;-69
2022/08/10 06:24:30;;;;;;;;;;;13.80;99.90;;;;;;5095156;28;20003;-69
2022/08/10 06:26:57;;;;;;;;;;;13.70;99.90;;;;;;5094660;28;20402;-69
2022/08/10 06:29:24;;;;;;;;;;;13.70;99.90;;;;;;5094864;28;19915;-69
2022/08/10 06:31:51;;;;;;;;;;;13.60;99.90;;;;;;5094846;28;19970;-69
2022/08/10 06:34:29;;;;;;;;;;;13.70;99.90;;;;;;5094507;28;19909;-69
2022/08/10 06:36:57;;;;;;;;;;;13.60;99.90;;;;;;5094880;28;19908;-69
2022/08/10 06:39:24;;;;;;;;;;;13.60;99.90;;;;;;5094790;28;19953;-69
2022/08/10 06:41:53;;;;;;;;;;;13.60;99.90;;;;;;5094508;28;19943;-69
2022/08/10 06:44:24;;;;;;;;;;;13.60;99.90;;;;;;5094284;28;20270;-69
2022/08/10 06:46:51;;;;;;;;;;;13.60;99.90;;;;;;5094593;28;20273;-69
2022/08/10 06:49:21;;;;;;;;;;;13.60;99.90;;;;;;5094540;28;19908;-69
2022/08/10 06:51:51;;;;;;;;;;;13.60;99.90;;;;;;5083536;28;20264;-69
2022/08/10 06:54:21;;;;;;;;;;;13.60;99.90;;;;;;5071902;28;20340;-68
2022/08/10 06:56:50;;;;;;;;;;;13.60;99.90;;;;;;5071845;28;19920;-69
2022/08/10 06:59:30;;;;;;;;;;;13.60;99.90;;;;;;5071961;28;19909;-69
2022/08/10 07:01:58;;;;;;;;;;;13.50;99.90;;;;;;5071570;28;19944;-69
2022/08/10 07:04:27;;;;;;;;;;;13.50;99.90;;;;;;5071258;28;19935;-69
2022/08/10 07:06:54;;;;;;;;;;;13.40;99.90;;;;;;5071735;28;19915;-69
2022/08/10 07:09:22;;;;;;;;;;;13.40;99.90;;;;;;5071869;28;19916;-69
2022/08/10 07:11:50;;;;;;;;;;;13.40;99.90;;;;;;5071717;28;19931;-69
2022/08/10 07:14:17;;;;;;;;;;;13.40;99.90;;;;;;5071542;28;19912;-69
2022/08/10 07:16:44;;;;;;;;;;;13.30;99.90;;;;;;5071619;28;20001;-69
2022/08/10 07:19:12;;;;;;;;;;;13.30;99.90;;;;;;5071140;28;19920;-69
2022/08/10 07:21:43;;;;;;;;;;;13.30;99.90;;;;;;5071643;28;20037;-69
2022/08/10 07:24:10;;;;;;;;;;;13.30;99.90;;;;;;5071292;28;19909;-69
2022/08/10 07:26:39;;;;;;;;;;;13.30;99.90;;;;;;5071433;28;20016;-69
2022/08/10 07:29:06;;;;;;;;;;;13.30;99.90;;;;;;5071640;28;20000;-69
2022/08/10 07:31:33;;;;;;;;;;;13.30;99.90;;;;;;5066977;28;19986;-69
2022/08/10 07:34:01;;;;;;;;;;;13.30;99.90;;;;;;5051333;28;19912;-69
2022/08/10 07:36:29;;;;;;;;;;;13.30;99.90;;;;;;5083127;28;19913;-69
2022/08/10 07:38:56;;;;;;;;;;;13.30;99.90;;;;;;5051100;28;19941;-69
2022/08/10 07:41:24;;;;;;;;;;;13.30;99.90;;;;;;5051352;28;19913;-69
2022/08/10 07:43:51;;;;;;;;;;;13.20;99.90;;;;;;5050340;28;20389;-69
2022/08/10 07:46:20;;;;;;;;;;;13.20;99.90;;;;;;5051539;28;19925;-69
2022/08/10 07:48:51;;;;;;;;;;;13.10;99.90;;;;;;5051413;28;20248;-69
2022/08/10 07:51:18;;;;;;;;;;;13.00;99.90;;;;;;5051227;28;19935;-69
2022/08/10 07:53:49;;;;;;;;;;;13.00;99.90;;;;;;5051185;28;19967;-69
2022/08/10 07:56:17;;;;;;;;;;;13.00;99.90;;;;;;5050639;28;19909;-69
2022/08/10 07:58:48;;;;;;;;;;;13.00;99.90;;;;;;5051107;28;19937;-69
2022/08/10 08:01:16;;;;;;;;;;;13.10;99.90;;;;;;5051080;28;19909;-69
2022/08/10 08:03:44;;;;;;;;;;;13.10;99.90;;;;;;5051853;28;19908;-70
2022/08/10 08:06:11;;;;;;;;;;;13.00;99.90;;;;;;5051035;28;19909;-69
2022/08/10 08:08:39;;;;;;;;;;;13.10;99.90;;;;;;5051233;28;19909;-69
2022/08/10 08:11:07;;;;;;;;;;;13.00;99.90;;;;;;5050458;28;20405;-69
2022/08/10 08:13:34;;;;;;;;;;;13.00;99.90;;;;;;5051070;28;19913;-69
2022/08/10 08:16:04;;;;;;;;;;;13.00;99.90;;;;;;5050944;28;20286;-69
2022/08/10 08:18:31;;;;;;;;;;;12.90;99.90;;;;;;5051239;28;20003;-69
2022/08/10 08:20:58;;;;;;;;;;;12.90;99.90;;;;;;5051072;28;19916;-69
2022/08/10 08:23:27;;;;;;;;;;;12.90;99.90;;;;;;5050662;28;19909;-69
2022/08/10 08:25:54;;;;;;;;;;;12.90;99.90;;;;;;5050738;28;19912;-69
2022/08/10 08:28:21;;;;;;;;;;;12.90;99.90;;;;;;5050768;28;20452;-69
2022/08/10 08:30:48;;;;;;;;;;;12.80;99.90;;;;;;5051557;28;20012;-69
2022/08/10 08:33:17;;;;;;;;;;;12.80;99.90;;;;;;5051163;28;19987;-69
2022/08/10 08:35:44;;;;;;;;;;;12.80;99.90;;;;;;5050531;28;19974;-69
2022/08/10 08:38:13;;;;;;;;;;;12.80;99.90;;;;;;5050776;28;19995;-69
2022/08/10 08:40:41;;;;;;;;;;;12.80;99.90;;;;;;5050803;28;19917;-69
2022/08/10 08:43:14;;;;;;;;;;;12.80;99.90;;;;;;5050899;28;20272;-69
2022/08/10 08:45:44;;;;;;;;;;;12.90;99.90;;;;;;5050734;28;19928;-69
2022/08/10 08:48:36;;;;;;;;;;;12.90;99.90;;;;;;5050479;28;19921;-69
2022/08/10 08:51:12;;;;;;;;;;;12.90;99.90;;;;;;5049390;28;19920;-69
2022/08/10 08:54:02;;;;;;;;;;;12.90;99.90;;;;;;5051214;28;19917;-69
2022/08/10 08:56:54;;;;;;;;;;;12.90;99.90;;;;;;5053060;28;19955;-69
2022/08/10 08:59:42;;;;;;;;;;;12.90;99.90;;;;;;5053165;28;20449;-69
2022/08/10 09:02:13;;;;;;;;;;;12.90;99.90;;;;;;5054955;28;19999;-69
2022/08/10 09:04:46;;;;;;;;;;;12.90;99.90;;;;;;5056812;28;19951;-69
2022/08/10 09:07:30;;;;;;;;;;;12.80;99.90;;;;;;5055782;28;19913;-69
2022/08/10 09:10:03;;;;;;;;;;;12.80;99.90;;;;;;5056567;28;19916;-69
2022/08/10 09:12:48;;;;;;;;;;;12.80;99.90;;;;;;5056497;28;20359;-69
2022/08/10 09:15:23;;;;;;;;;;;12.80;99.90;;;;;;5056162;28;20277;-70
2022/08/10 09:18:05;;;;;;;;;;;12.90;99.90;;;;;;5056403;28;19966;-69
2022/08/10 09:20:45;;;;;;;;;;;12.90;99.90;;;;;;5056369;28;19909;-69
2022/08/10 09:23:19;;;;;;;;;;;12.90;99.90;;;;;;5056065;28;19909;-69
2022/08/10 09:25:58;;;;;;;;;;;12.90;99.90;;;;;;5055862;28;20364;-69
2022/08/10 09:28:35;;;;;;;;;;;12.90;99.90;;;;;;5055946;28;20283;-69
2022/08/10 09:31:02;;;;;;;;;;;12.90;99.90;;;;;;5055750;28;19916;-69
2022/08/10 09:33:49;;;;;;;;;;;12.90;99.90;;;;;;5057782;28;20435;-69
2022/08/10 09:36:15;;;;;;;;;;;12.90;99.90;;;;;;5056814;28;19909;-70
2022/08/10 09:38:57;;;;;;;;;;;12.90;99.90;;;;;;5056469;28;19912;-69
2022/08/10 09:41:42;;;;;;;;;;;12.90;99.90;;;;;;5056697;28;19935;-69
2022/08/10 09:44:27;;;;;;;;;;;12.90;99.90;;;;;;5056340;28;19972;-69
2022/08/10 09:47:08;;;;;;;;;;;12.90;99.90;;;;;;5056507;28;19912;-69
2022/08/10 09:49:47;;;;;;;;;;;12.90;99.90;;;;;;5056656;28;19909;-69
2022/08/10 09:52:24;;;;;;;;;;;12.90;99.90;;;;;;5054892;28;19985;-69
2022/08/10 09:54:54;;;;;;;;;;;12.90;99.90;;;;;;5055103;28;19960;-69
2022/08/10 09:57:21;;;;;;;;;;;12.90;99.90;;;;;;5054951;28;20003;-69
2022/08/10 10:00:00;;;;;;;;;;;12.90;99.90;;;;;;5055282;28;20418;-69
2022/08/10 10:02:36;;;;;;;;;;;12.90;99.90;;;;;;5055222;28;19916;-69
2022/08/10 10:05:03;;;;;;;;;;;12.90;99.90;;;;;;5055335;28;20313;-69
2022/08/10 10:07:30;;;;;;;;;;;12.90;99.90;;;;;;5054862;28;19909;-69
2022/08/10 10:10:07;;;;;;;;;;;12.90;99.90;;;;;;5055044;28;19909;-69
2022/08/10 10:12:44;;;;;;;;;;;12.90;99.90;;;;;;5054980;28;19917;-69
2022/08/10 10:15:49;;;;;;;;;;;12.90;99.90;;;;;;5055159;28;19931;-69
2022/08/10 10:18:16;;;;;;;;;;;12.90;99.90;;;;;;5032769;28;19985;-69
2022/08/10 10:21:08;;;;;;;;;;;12.80;99.90;;;;;;5032880;28;19967;-69
2022/08/10 10:23:53;;;;;;;;;;;12.80;99.90;;;;;;5045524;28;19909;-69
2022/08/10 10:26:20;;;;;;;;;;;12.70;99.90;;;;;;5054553;28;19909;-69
2022/08/10 10:28:46;;;;;;;;;;;12.60;99.90;;;;;;5054896;28;20003;-69
2022/08/10 10:31:27;;;;;;;;;;;12.60;99.90;;;;;;5054787;28;19939;-69
2022/08/10 10:33:57;;;;;;;;;;;12.60;99.90;;;;;;5054528;28;19948;-69
2022/08/10 10:36:24;;;;;;;;;;;12.60;99.90;;;;;;5054526;28;19970;-69
2022/08/10 10:38:51;;;;;;;;;;;12.50;99.90;;;;;;5054334;28;20310;-69
2022/08/10 10:41:40;;;;;;;;;;;12.50;99.90;;;;;;5054804;28;19996;-70
2022/08/10 10:44:25;;;;;;;;;;;12.50;99.90;;;;;;5052017;28;19913;-69
2022/08/10 10:47:01;;;;;;;;;;;12.50;99.90;;;;;;5054696;28;19912;-69
2022/08/10 10:49:34;;;;;;;;;;;12.50;99.90;;;;;;5054341;28;19916;-70
2022/08/10 10:52:19;;;;;;;;;;;12.50;99.90;;;;;;5054186;28;19920;-69
2022/08/10 10:55:04;;;;;;;;;;;12.50;99.90;;;;;;5053729;28;19912;-69
2022/08/10 10:57:37;;;;;;;;;;;12.50;99.90;;;;;;5054456;28;19962;-69
2022/08/10 11:00:07;;;;;;;;;;;12.50;99.90;;;;;;5053883;28;19909;-69
2022/08/10 11:02:46;;;;;;;;;;;12.50;99.90;;;;;;5054101;28;19915;-69
2022/08/10 11:05:18;;;;;;;;;;;12.40;99.90;;;;;;5054047;28;19916;-69
2022/08/10 11:07:54;;;;;;;;;;;12.40;99.90;;;;;;5053491;28;19908;-69
2022/08/10 11:10:23;;;;;;;;;;;12.40;99.90;;;;;;5053697;28;19961;-69
2022/08/10 11:13:13;;;;;;;;;;;12.40;99.90;;;;;;5054100;28;19920;-69
2022/08/10 11:15:45;;;;;;;;;;;12.40;99.90;;;;;;5050874;28;20269;-68
2022/08/10 11:18:22;;;;;;;;;;;12.30;99.90;;;;;;5053190;28;19915;-69
2022/08/10 11:21:00;;;;;;;;;;;12.40;99.90;;;;;;5050195;28;20291;-69
2022/08/10 11:23:49;;;;;;;;;;;12.40;99.90;;;;;;5051050;28;19909;-69
2022/08/10 11:26:26;;;;;;;;;;;12.40;99.90;;;;;;5051595;28;19909;-70
2022/08/10 11:29:21;;;;;;;;;;;12.40;99.90;;;;;;5051539;28;19913;-69
2022/08/10 11:31:54;;;;;;;;;;;12.30;99.90;;;;;;5046694;28;20024;-69
2022/08/10 11:34:35;;;;;;;;;;;12.30;99.90;;;;;;5051010;28;20012;-70
2022/08/10 11:37:05;;;;;;;;;;;12.30;99.90;;;;;;5050981;28;20282;-69
2022/08/10 11:39:34;;;;;;;;;;;12.20;99.90;;;;;;5051341;28;20011;-69
2022/08/10 11:42:30;;;;;;;;;;;12.20;99.90;;;;;;5051148;28;20318;-70
2022/08/10 11:45:01;;;;;;;;;;;12.20;99.90;;;;;;5046282;28;19921;-69
2022/08/10 11:47:34;;;;;;;;;;;12.20;99.90;;;;;;5050969;28;19909;-69
2022/08/10 11:50:13;;;;;;;;;;;12.20;99.90;;;;;;5051268;28;20101;-70
2022/08/10 11:52:49;;;;;;;;;;;12.20;99.90;;;;;;5050834;28;20020;-70
2022/08/10 11:55:20;;;;;;;;;;;12.20;99.90;;;;;;5051283;28;19916;-70
2022/08/10 11:57:48;;;;;;;;;;;12.20;99.90;;;;;;5051119;28;19963;-69
2022/08/10 12:00:15;;;;;;;;;;;12.20;99.90;;;;;;5049396;28;20268;-69
2022/08/10 12:02:46;;;;;;;;;;;12.10;99.90;;;;;;5051143;28;20381;-69
2022/08/10 12:05:34;;;;;;;;;;;12.10;99.90;;;;;;5051127;28;19909;-70
2022/08/10 12:08:02;;;;;;;;;;;12.10;99.90;;;;;;5050317;28;19908;-69
2022/08/10 12:10:29;;;;;;;;;;;12.10;99.90;;;;;;5050920;28;20015;-69
2022/08/10 12:13:31;;;;;;;;;;;12.10;99.90;;;;;;5050692;28;20367;-69
2022/08/10 12:16:06;;;;;;;;;;;12.10;99.90;;;;;;5028588;28;19996;-69
2022/08/10 12:18:45;;;;;;;;;;;12.00;99.90;;;;;;5047742;28;20272;-70
2022/08/10 12:21:15;;;;;;;;;;;12.00;99.90;;;;;;5050839;28;19928;-69
2022/08/10 12:24:09;;;;;;;;;;;12.00;99.90;;;;;;5050666;28;19967;-69
2022/08/10 12:26:39;;;;;;;;;;;11.90;99.90;;;;;;5041968;28;19920;-68
2022/08/10 12:29:05;;;;;;;;;;;11.90;99.90;;;;;;5050992;28;19913;-68
2022/08/10 12:31:40;;;;;;;;;;;11.80;99.90;;;;;;5054199;28;19917;-68
2022/08/10 12:34:19;;;;;;;;;;;11.90;99.90;;;;;;5054683;28;20311;-68
2022/08/10 12:36:53;;;;;;;;;;;11.80;99.90;;;;;;5054300;28;19928;-68
2022/08/10 12:39:34;;;;;;;;;;;11.90;99.90;;;;;;5054359;28;19916;-68
2022/08/10 12:42:27;;;;;;;;;;;11.80;99.90;;;;;;5054431;28;19909;-69
2022/08/10 12:44:58;;;;;;;;;;;11.80;99.90;;;;;;5045699;28;19921;-68
2022/08/10 12:47:49;;;;;;;;;;;11.70;99.90;;;;;;5054686;28;19913;-68
2022/08/10 12:50:23;;;;;;;;;;;11.70;99.90;;;;;;5054291;28;19909;-68
2022/08/10 12:52:50;;;;;;;;;;;11.70;99.90;;;;;;5053391;28;19924;-68
2022/08/10 12:55:17;;;;;;;;;;;11.70;99.90;;;;;;5054465;28;19909;-68
2022/08/10 12:57:48;;;;;;;;;;;11.60;99.90;;;;;;5054434;28;20378;-68
2022/08/10 13:00:16;;;;;;;;;;;11.60;99.90;;;;;;5055143;28;19908;-68
2022/08/10 13:02:43;;;;;;;;;;;11.60;99.90;;;;;;5056293;28;19912;-68
2022/08/10 13:05:12;;;;;;;;;;;11.60;99.90;;;;;;5056426;28;19909;-68
2022/08/10 13:07:44;;;;;;;;;;;11.60;99.90;;;;;;5056295;28;19915;-68
2022/08/10 13:10:14;;;;;;;;;;;11.60;99.90;;;;;;5056191;28;19908;-68
2022/08/10 13:12:43;;;;;;;;;;;11.60;99.90;;;;;;5056163;28;19917;-68
2022/08/10 13:15:16;;;;;;;;;;;11.60;99.90;;;;;;5056245;28;20288;-68
2022/08/10 13:17:47;;;;;;;;;;;11.60;99.90;;;;;;5056260;28;20359;-68
2022/08/10 13:20:22;;;;;;;;;;;11.60;99.90;;;;;;5055923;28;19909;-68
2022/08/10 13:22:50;;;;;;;;;;;11.60;99.90;;;;;;5056143;28;19920;-68
2022/08/10 13:25:19;;;;;;;;;;;11.50;99.90;;;;;;5056827;28;19962;-68
2022/08/10 13:27:47;;;;;;;;;;;11.50;99.90;;;;;;5056350;28;20421;-68
2022/08/10 13:30:13;;;;;;;;;;;11.50;99.90;;;;;;5055986;28;19955;-68
2022/08/10 13:32:47;;;;;;;;;;;11.50;99.90;;;;;;5056167;28;19917;-68
2022/08/10 13:35:16;;;;;;;;;;;11.50;99.90;;;;;;5056214;28;19909;-68
2022/08/10 13:37:44;;;;;;;;;;;11.60;99.90;;;;;;5055765;28;19908;-69
2022/08/10 13:40:13;;;;;;;;;;;11.50;99.90;;;;;;5055719;28;19916;-68
2022/08/10 13:42:41;;;;;;;;;;;11.50;99.90;;;;;;5055267;28;19909;-68
2022/08/10 13:45:11;;;;;;;;;;;11.50;99.90;;;;;;5055870;28;19921;-68
2022/08/10 13:47:38;;;;;;;;;;;11.40;99.90;;;;;;5056120;28;19955;-68
2022/08/10 13:50:10;;;;;;;;;;;11.40;99.90;;;;;;5055470;28;20359;-68
2022/08/10 13:52:39;;;;;;;;;;;11.40;99.90;;;;;;5055832;28;20000;-68
2022/08/10 13:55:11;;;;;;;;;;;11.40;99.90;;;;;;5055425;28;19913;-69
2022/08/10 13:57:38;;;;;;;;;;;11.30;99.90;;;;;;5055419;28;19991;-69
2022/08/10 14:00:07;;;;;;;;;;;11.30;99.90;;;;;;5055528;28;20342;-68
2022/08/10 14:02:38;;;;;;;;;;;11.20;99.90;;;;;;5055450;28;20371;-69
2022/08/10 14:05:05;;;;;;;;;;;11.20;99.90;;;;;;5055938;28;20059;-68
2022/08/10 14:07:32;;;;;;;;;;;11.20;99.90;;;;;;5055280;28;20275;-68
2022/08/10 14:10:05;;;;;;;;;;;11.10;99.90;;;;;;5055300;28;19913;-68
2022/08/10 14:12:34;;;;;;;;;;;11.20;99.90;;;;;;5055226;28;19917;-68
2022/08/10 14:15:06;;;;;;;;;;;11.20;99.90;;;;;;5055160;28;19951;-68
2022/08/10 14:17:34;;;;;;;;;;;11.10;99.90;;;;;;5055152;28;19915;-67
2022/08/10 14:26:08;;;;;;;;;;;11.10;99.90;;;;;;5054861;28;19994;-69
2022/08/10 14:28:47;;;;;;;;;;;11.10;99.90;;;;;;5054981;28;19990;-68
2022/08/10 14:31:16;;;;;;;;;;;11.00;99.90;;;;;;5054777;28;19917;-68
2022/08/10 14:33:46;;;;;;;;;;;11.00;99.90;;;;;;5054790;28;19912;-68
2022/08/10 14:36:17;;;;;;;;;;;11.10;99.90;;;;;;5054608;28;19931;-68
2022/08/10 14:38:44;;;;;;;;;;;11.00;99.90;;;;;;5054510;28;19995;-68
2022/08/10 14:41:14;;;;;;;;;;;11.10;99.90;;;;;;5054566;28;20375;-68
2022/08/10 14:43:41;;;;;;;;;;;11.10;99.90;;;;;;5054606;28;19923;-68
2022/08/10 14:46:17;;;;;;;;;;;11.10;99.90;;;;;;5054275;28;19960;-68
2022/08/10 14:48:45;;;;;;;;;;;11.00;99.90;;;;;;5054454;28;19970;-68